Wickenby Aerodrome

EGNW · Inghilterra, Regno Unito

Storia di METAR EGNW · Wickenby Aerodrome

Di seguito sono riportati i METAR degli ultimi giorni. Seleziona un anno per sfogliare i METAR più vecchi, dall'anno 2007 in poi.

7 dicembre 2022

Tempo Codice Tempo metereologico Temp. Vista Base nuvolosa Vento METAR/SPECI
03:50
V
1 °C 10 km+ - 320° 320° 10 kt METAR EGXW 070350Z AUTO 32010KT 9999 NCD 01/00 Q1022
02:50
V
2 °C 10 km+ - 320° 320° 10 kt METAR EGXW 070250Z AUTO 32010KT 9999 NCD 02/01 Q1023
01:50
V
2 °C 10 km+ - 310° 310° 10 kt METAR EGXW 070150Z AUTO 31010KT 9999 FEW060/// 02/01 Q1023
00:50
V
2 °C 10 km+ - 310° 310° 8 kt METAR EGXW 070050Z AUTO 31008KT 9999 FEW029/// 02/01 Q1023

6 dicembre 2022

Tempo Codice Tempo metereologico Temp. Vista Base nuvolosa Vento METAR/SPECI
23:50
V
2 °C 10 km+ - 310° 310° 9 kt METAR EGXW 062350Z AUTO 31009KT 9999 NCD 02/01 Q1023
22:50
V
2 °C 10 km+ - 320° 320° 9 kt METAR EGXW 062250Z AUTO 32009KT 9999 NCD 02/02 Q1024
21:50
V
2 °C 10 km+ - 320° 320° 10 kt METAR EGXW 062150Z 32010KT 9999 FEW040 02/02 Q1023 TEMPO SCT008 RMK BLU TEMPO GRN
21:20
V
2 °C 10 km+ - 320° 320° 10 kt METAR EGXW 062120Z 32010KT 9999 FEW005 02/02 Q1023 TEMPO SCT008 RMK BLU TEMPO GRN
20:50
V
3 °C 10 km+ - 320° 320° 9 kt METAR EGXW 062050Z 32009KT 9999 FEW005 03/02 Q1023 TEMPO SCT008 RMK BLU TEMPO GRN
19:50
V
3 °C 10 km+ - 310° 310° 11 kt METAR EGXW 061950Z 31011KT 9999 FEW009 03/02 Q1024 NOSIG RMK BLU BLU
19:22
V
3 °C 10 km+ - 320° 320° 9 kt METAR EGXW 061922Z 32009KT 9999 FEW035 03/02 Q1023 NOSIG RMK BLU BLU
18:50
V
3 °C 10 km+ - 320° 320° 10 kt METAR EGXW 061850Z 32010KT 9999 FEW025 03/02 Q1023 NOSIG RMK BLU BLU
18:20
V
3 °C 10 km+ - 310° 310° 10 kt METAR EGXW 061820Z 31010KT 9999 FEW025 03/02 Q1023 NOSIG RMK BLU BLU
17:50
V
4 °C 10 km+ - 310° 310° 10 kt METAR EGXW 061750Z 31010KT 9999 FEW025 04/03 Q1023 NOSIG RMK BLU BLU
17:20
V
4 °C 10 km+ - 320° 320° 9 kt METAR EGXW 061720Z 32009KT 9999 FEW028 04/03 Q1023 NOSIG RMK BLU BLU
16:50
V
4 °C 10 km+ - 320° 320° 9 kt METAR EGXW 061650Z 32009KT 9999 FEW029 04/03 Q1023 NOSIG RMK BLU BLU
16:20
V
4 °C 10 km+ 3.000 ft 320° 320° 9 kt METAR EGXW 061620Z 32009KT 9999 -SHRA FEW011 BKN030 04/03 Q1023 NOSIG RMK BLU BLU
15:50
V
4 °C 10 km+ - 320° 320° 9 kt METAR EGXW 061550Z 32009KT 9999 FEW011 04/03 Q1023 TEMPO SCT011 RMK BLU TEMPO GRN
15:20
V
5 °C 10 km+ - 310° 310° 10 kt METAR EGXW 061520Z 31010KT 9999 FEW011 SCT050 05/03 Q1023 TEMPO SCT011 RMK BLU TEMPO GRN
14:50
V
5 °C 10 km+ - 310° 310° 9 kt METAR EGXW 061450Z 31009KT 9999 FEW012 SCT025 05/03 Q1023 NOSIG RMK BLU BLU
14:20
V
6 °C 10 km+ 5.000 ft 320° 320° 8 kt METAR EGXW 061420Z 32008KT 9999 FEW011 SCT025 BKN050 06/04 Q1023 NOSIG RMK BLU BLU
14:09
V
6 °C 10 km+ 5.000 ft 310° 310° 9 kt METAR EGXW 061409Z 31009KT 9999 FEW011 SCT029 BKN050 06/04 Q1023 NOSIG RMK BLU BLU
13:50
V
5 °C 10 km+ 6.000 ft 310° 310° 7 kt METAR EGXW 061350Z 31007KT 9999 SCT011 BKN060 05/04 Q1023 TEMPO FEW011 RMK GRN TEMPO BLU
13:20
V
5 °C 10 km+ 5.000 ft 310° 310° 9 kt METAR EGXW 061320Z 31009KT 9999 FEW011 SCT026 BKN050 05/04 Q1023 NOSIG RMK BLU BLU
12:50
V
5 °C 10 km+ 5.000 ft 320° 320° 9 kt METAR EGXW 061250Z 32009KT 9999 FEW009 SCT026 BKN050 05/03 Q1023 TEMPO SCT010 RMK BLU TEMPO GRN
12:20
M
5 °C 10 km+ 2.800 ft 310° 310° 9 kt METAR EGXW 061220Z 31009KT 9999 FEW008 BKN028 05/03 Q1024 TEMPO SCT010 RMK BLU TEMPO GRN
11:50
V
5 °C 10 km+ 3.000 ft 320° 320° 10 kt METAR EGXW 061150Z 32010KT 9999 FEW008 BKN030 05/03 Q1024 TEMPO SCT010 RMK BLU TEMPO GRN
11:23
M
4 °C 10 km+ 2.800 ft 320° 320° 9 kt METAR EGXW 061123Z 32009KT 9999 FEW007 BKN028 04/03 Q1024 TEMPO SCT010 RMK BLU TEMPO GRN
10:50
M
4 °C 10 km+ 2.800 ft 320° 320° 9 kt METAR EGXW 061050Z 32009KT 9999 SCT007 BKN028 04/03 Q1024 TEMPO FEW007 RMK GRN TEMPO BLU
10:20
V
4 °C 10 km+ 3.200 ft 320° 320° 10 kt METAR EGXW 061020Z 32010KT 9999 FEW006 BKN032 04/03 Q1024 TEMPO SCT006 RMK BLU TEMPO YLO1
09:50
V
4 °C 10 km+ 3.200 ft 310° 310° 9 kt METAR EGXW 060950Z 31009KT 9999 SCT006 BKN032 04/03 Q1024 TEMPO FEW006 RMK YLO1 TEMPO BLU
09:20
V
3 °C 10 km+ 3.400 ft 310° 310° 8 kt METAR EGXW 060920Z 31008KT 9999 SCT004 BKN034 03/03 Q1024 TEMPO FEW004 RMK YLO2 TEMPO BLU
09:03
V
3 °C 10 km+ 3.200 ft 300° 300° 8 kt METAR EGXW 060903Z 30008KT 9999 SCT004 BKN032 03/03 Q1024 TEMPO FEW004 RMK YLO2 TEMPO BLU
08:50
M
3 °C 10 km+ 2.800 ft 300° 300° 8 kt METAR EGXW 060850Z 30008KT 9999 FEW004 BKN028 03/02 Q1024 NOSIG RMK BLU BLU
08:20
M
2 °C 10 km+ 2.600 ft 310° 310° 8 kt METAR EGXW 060820Z 31008KT 9999 FEW004 BKN026 02/02 Q1024 NOSIG RMK BLU BLU
07:50
M
2 °C 10 km+ 2.800 ft 310° 310° 7 kt METAR EGXW 060750Z 31007KT 9999 FEW010 BKN028 02/02 Q1024 TEMPO SCT010 RMK BLU TEMPO GRN
07:20
V
2 °C 10 km+ 3.000 ft 320° 320° 8 kt METAR EGXW 060720Z 32008KT 9999 FEW010 BKN030 02/01 Q1024 TEMPO SCT010 RMK BLU TEMPO GRN
06:50
V
1 °C 10 km+ 3.000 ft 320° 320° 8 kt METAR EGXW 060650Z 32008KT 9999 BKN030 01/01 Q1024 TEMPO SCT008 RMK BLU TEMPO GRN
05:50
V
1 °C 10 km+ 3.600 ft 310° 310° 8 kt METAR EGXW 060550Z AUTO 31008KT 9999 BKN036/// 01/01 Q1024
04:50
V
2 °C 10 km+ - 320° 320° 7 kt METAR EGXW 060450Z AUTO 32007KT 9999 FEW035/// 02/01 Q1025
03:50
V
2 °C 10 km+ - 320° 320° 6 kt METAR EGXW 060350Z AUTO 32006KT 9999 SCT038/// 02/01 Q1025
02:50
V
3 °C 10 km+ - 340° 340° 8 kt METAR EGXW 060250Z AUTO 34008KT 9999 FEW042/// 03/01 Q1026
01:50
V
3 °C 10 km+ - 010° 010° 7 kt METAR EGXW 060150Z AUTO 01007KT 9999 NCD 03/01 Q1026
00:50
V
4 °C 10 km+ 4.100 ft 010° 010° 8 kt METAR EGXW 060050Z AUTO 01008KT 9999 FEW029/// BKN041/// 04/02 Q1026

5 dicembre 2022

Tempo Codice Tempo metereologico Temp. Vista Base nuvolosa Vento METAR/SPECI
23:50
V
5 °C 10 km+ 3.900 ft 350° 350° 7 kt METAR EGXW 052350Z AUTO 35007KT 9999 FEW028/// BKN039/// 05/03 Q1026 REDZ
22:50
M
5 °C 10 km+ 2.700 ft 010° 010° 6 kt METAR EGXW 052250Z AUTO 01006KT 9999 -DZ FEW021/// BKN027/// 05/04 Q1026
22:24
M
5 °C 10 km+ 1.800 ft 010° 010° 6 kt METAR EGXW 052224Z 01006KT 9999 -SHRA BKN018 05/04 Q1026 TEMPO NSW FEW018 RMK WHT TEMPO BLU
21:50
M
5 °C 10 km+ 1.700 ft 010° 010° 7 kt METAR EGXW 052150Z 01007KT 9999 -SHRA BKN017 05/04 Q1026 TEMPO NSW FEW017 RMK WHT TEMPO BLU
21:20
V
5 °C 10 km+ 5.000 ft 020° 020° 7 kt METAR EGXW 052120Z 02007KT 9999 FEW011 SCT016 BKN050 05/04 Q1026 TEMPO FEW016 RMK WHT TEMPO BLU
20:50
M
5 °C 10 km+ 2.100 ft 020° 020° 9 kt METAR EGXW 052050Z 02009KT 9999 FEW015 BKN021 05/04 Q1026 TEMPO FEW021 RMK WHT TEMPO BLU
20:20
V
5 °C 10 km+ - 020° 020° 9 kt METAR EGXW 052020Z 02009KT 9999 FEW018 SCT050 05/04 Q1026 TEMPO SCT018 RMK BLU TEMPO WHT
19:50
V
5 °C 10 km+ - 010° 010° 8 kt METAR EGXW 051950Z 01008KT 9999 SCT018 SCT040 05/04 Q1026 TEMPO FEW018 RMK WHT TEMPO BLU
19:23
V
5 °C 10 km+ - 010° 010° 7 kt METAR EGXW 051923Z 01007KT 9999 FEW019 05/03 Q1026 TEMPO SCT019 RMK WHT TEMPO BLU
18:50
V
5 °C 10 km+ 5.000 ft 010° 010° 9 kt METAR EGXW 051850Z 01009KT 9999 -SHRA SCT025 BKN050 05/03 Q1026 TEMPO BKN020 RMK BLU TEMPO WHT
18:20
V
5 °C 10 km+ - 010° 010° 8 kt METAR EGXW 051820Z 01008KT 9999 FEW022 05/03 Q1025 TEMPO SCT022 RMK BLU TEMPO WHT
17:50
V
5 °C 10 km+ - 010° 010° 7 kt METAR EGXW 051750Z 01007KT 9999 -SHRA SCT022 05/03 Q1025 TEMPO FEW022 RMK WHT TEMPO BLU
17:20
V
5 °C 10 km+ - 010° 010° 6 kt METAR EGXW 051720Z 01006KT 9999 FEW020 05/03 Q1025 NOSIG RMK BLU BLU
16:50
V
5 °C 10 km+ - 020° 020° 7 kt METAR EGXW 051650Z 02007KT 9999 -SHRA SCT023 SCT045 05/04 Q1025 TEMPO FEW023 RMK WHT TEMPO BLU
16:20
V
6 °C 10 km+ - 040° 040° 12 kt METAR EGXW 051620Z 04012KT 9999 FEW018 SCT050 06/03 Q1025 TEMPO SCT018 RMK BLU TEMPO WHT
15:50
V
6 °C 10 km+ 4.500 ft 030° 030° 9 kt METAR EGXW 051550Z 03009KT 9999 SCT018 BKN045 06/04 Q1025 TEMPO FEW018 RMK WHT TEMPO BLU
15:20
V
7 °C 10 km+ 4.200 ft 030° 030° 12 kt METAR EGXW 051520Z 03012KT 9999 -SHRA SCT018 BKN042 07/04 Q1025 TEMPO FEW018 RMK WHT TEMPO BLU
14:50
V
7 °C 10 km+ 5.000 ft 040° 040° 14 kt METAR EGXW 051450Z 04014KT 9999 SCT018 BKN050 07/04 Q1025 TEMPO FEW018 RMK WHT TEMPO BLU
14:20
V
7 °C 10 km+ 5.000 ft 030° 030° 10 kt METAR EGXW 051420Z 03010KT 9999 SCT018 BKN050 07/05 Q1024 TEMPO FEW018 RMK WHT TEMPO BLU
13:50
V
7 °C 10 km+ 5.000 ft 040° 040° 9 kt METAR EGXW 051350Z 04009KT 9999 FEW016 BKN050 07/05 Q1024 TEMPO SCT016 RMK BLU TEMPO WHT
13:20
V
7 °C 10 km+ 6.000 ft 030° 030° 8 kt METAR EGXW 051320Z 03008KT 9999 SCT020 SCT028 BKN060 07/05 Q1024 TEMPO FEW020 RMK WHT TEMPO BLU
12:50
V
7 °C 10 km+ 4.000 ft 040° 040° 13 kt METAR EGXW 051250Z 04013KT 9999 -SHRA FEW013 SCT018 BKN040 07/05 Q1024 TEMPO FEW018 RMK WHT TEMPO BLU
12:34
V
7 °C 10 km+ 5.000 ft 040° 040° 14 kt METAR EGXW 051234Z 04014KT 9999 -SHRA FEW013 SCT018 BKN050 07/05 Q1024 TEMPO FEW018 RMK WHT TEMPO BLU
12:20
V
7 °C 10 km+ 5.000 ft 030° 030° 11 kt METAR EGXW 051220Z 03011KT 9999 SCT013 BKN050 07/05 Q1024 TEMPO FEW013 RMK GRN TEMPO WHT
11:50
V
7 °C 10 km+ 5.000 ft 030° 030° 12 kt METAR EGXW 051150Z 03012KT 9999 SCT018 SCT036 BKN050 07/05 Q1024 TEMPO FEW018 RMK WHT TEMPO BLU
11:20
V
7 °C 10 km+ 5.000 ft 030° 030° 10 kt METAR EGXW 051120Z 03010KT 9999 SCT019 BKN050 07/05 Q1024 TEMPO FEW018 RMK WHT TEMPO BLU
10:50
V
7 °C 10 km+ 3.000 ft 030° 030° 10 kt METAR EGXW 051050Z 03010KT 9999 -SHRA SCT018 BKN030 BKN045 07/05 Q1024 TEMPO FEW018 RMK WHT TEMPO BLU
10:20
V
7 °C 10 km+ 3.500 ft 030° 030° 10 kt METAR EGXW 051020Z 03010KT 9999 -SHRA SCT015 BKN035 BKN050 07/05 Q1024 TEMPO FEW015 RMK WHT TEMPO BLU
09:50
V
7 °C 10 km+ 5.000 ft 030° 030° 7 kt METAR EGXW 050950Z 03007KT 9999 FEW018 SCT038 BKN050 07/05 Q1024 BLU TEMPO -SHRA SCT018 RMK BLU TEMPO WHT
09:20
V
6 °C 10 km+ 4.000 ft 020° 020° 8 kt METAR EGXW 050920Z 02008KT 9999 SCT018 BKN040 BKN050 06/05 Q1024 TEMPO FEW018 RMK WHT TEMPO BLU
08:50
V
6 °C 10 km+ 5.500 ft 020° 020° 8 kt METAR EGXW 050850Z 02008KT 9999 FEW018 SCT035 BKN055 06/04 Q1024 TEMPO 7000 -SHRA BKN018 RMK BLU TEMPO WHT
08:20
V
5 °C 10 km+ 5.500 ft 020° 020° 8 kt METAR EGXW 050820Z 02008KT 9999 FEW018 SCT028 BKN055 05/04 Q1024 TEMPO 7000 -SHRA BKN018 RMK BLU TEMPO WHT
07:50
V
5 °C 10 km+ 5.500 ft 020° 020° 9 kt METAR EGXW 050750Z 02009KT 9999 FEW022 SCT030 BKN055 05/04 Q1023 TEMPO 7000 -SHRA BKN022 RMK BLU TEMPO WHT
07:20
V
5 °C 10 km+ 5.000 ft 020° 020° 9 kt METAR EGXW 050720Z 02009KT 9999 FEW018 BKN050 05/04 Q1023 TEMPO 7000 -SHRA BKN018 RMK BLU TEMPO WHT
06:50
V
5 °C 10 km+ 20.000 ft 020° 020° 9 kt METAR EGXW 050650Z 02009KT 9999 SCT040 BKN200 05/04 Q1023 TEMPO 7000 -SHRA BKN018 RMK BLU TEMPO WHT
05:50
V
5 °C 10 km+ 5.000 ft 030° 030° 9 kt METAR EGXW 050550Z AUTO 03009KT 9999 BKN050/// 05/04 Q1023
04:50
V
5 °C 10 km+ 5.000 ft 030° 030° 8 kt METAR EGXW 050450Z AUTO 03008KT 9999 SCT028/// BKN050/// 05/04 Q1022
03:50
V
5 °C 10 km+ - 030° 030° 8 kt METAR EGXW 050350Z AUTO 03008KT 9999 FEW031/// SCT045/// 05/04 Q1022
02:50
V
5 °C 10 km+ 4.900 ft 040° 040° 7 kt METAR EGXW 050250Z AUTO 04007KT 9999 FEW032/// BKN049/// 05/05 Q1022 RERA
01:50
V
5 °C 10 km+ 3.800 ft 040° 040° 9 kt METAR EGXW 050150Z AUTO 04009KT 9999 -RADZ FEW013/// SCT025/// BKN038/// 05/05 Q1022
00:50
M
5 °C 9 km 1.700 ft 040° 040° 7 kt METAR EGXW 050050Z AUTO 04007KT 9000 BR BKN017/// SCT024/// 05/05 Q1022 RERA

4 dicembre 2022

Tempo Codice Tempo metereologico Temp. Vista Base nuvolosa Vento METAR/SPECI
23:50
M
5 °C 10 km+ 1.700 ft 050° 050° 7 kt METAR EGXW 042350Z AUTO 05007KT 9999 BKN017/// SCT050/// 05/04 Q1022 REDZ
22:50
V
5 °C 10 km+ 5.000 ft 030° 030° 8 kt METAR EGXW 042250Z AUTO 03008KT 9999 FEW030/// BKN050/// 05/04 Q1021
21:50
M
5 °C 10 km+ 1.700 ft 040° 040° 6 kt METAR EGXW 042150Z AUTO 04006KT 9999 BKN017/// BKN027/// 05/04 Q1021 REDZ
20:50
M
5 °C 10 km+ 1.700 ft 060° 060° 8 kt METAR EGXW 042050Z AUTO 06008KT 9999 FEW012/// BKN017/// 05/04 Q1021 RERA
19:50
V
5 °C 10 km+ - 040° 040° 9 kt METAR EGXW 041950Z AUTO 04009KT 9999 SCT012/// SCT027/// 05/04 Q1021 RERA
18:50
V
4 °C 10 km+ 5.000 ft 040° 040° 7 kt METAR EGXW 041850Z AUTO 04007KT 9999 SCT017/// BKN050/// 04/03 Q1020 RERA
17:50
M
4 °C 10 km+ 1.500 ft 050° 050° 8 kt METAR EGXW 041750Z AUTO 05008KT 9999 BKN015/// BKN046/// 04/03 Q1020 REDZ
16:50
V
5 °C 10 km+ 4.400 ft 070° 070° 9 kt METAR EGXW 041650Z AUTO 07009KT 9999 FEW013/// BKN044/// 05/03 Q1020 REDZ
15:50
M
5 °C 10 km+ 1.800 ft 080° 080° 11 kt METAR EGXW 041550Z AUTO 08011KT 9999 BKN018/// 05/03 Q1019 RERA
15:21
M
5 °C 10 km+ 2.500 ft 070° 070° 11 kt METAR EGXW 041521Z 07011KT 9999 FEW010 SCT020 BKN025 05/03 Q1019 TEMPO FEW020 RMK WHT TEMPO BLU
14:50
M
6 °C 6 km 2.500 ft 070° 070° 8 kt METAR EGXW 041450Z 07008KT 6000 -SHRA SCT010 OVC025 06/05 Q1019 TEMPO 9999 NSW FEW010 SCT018 RMK GRN TEMPO WHT
14:21
M
6 °C 7 km 1.800 ft 090° 090° 6 kt METAR EGXW 041421Z 09006KT 7000 -SHRA SCT010 BKN018 OVC025 06/05 Q1019 TEMPO 9999 NSW FEW010 SCT018 RMK GRN TEMPO WHT
13:50
V
6 °C 10 km+ 4.000 ft 060° 060° 8 kt METAR EGXW 041350Z 06008KT 9999 FEW012 SCT020 BKN040 06/05 Q1018 TEMPO FEW020 RMK WHT TEMPO BLU
13:20
V
6 °C 10 km+ 3.500 ft 050° 050° 8 kt METAR EGXW 041320Z 05008KT 9999 FEW012 SCT020 OVC035 06/05 Q1018 TEMPO FEW020 BKN035 RMK WHT TEMPO BLU
12:50
M
6 °C 10 km+ 1.800 ft 050° 050° 8 kt METAR EGXW 041250Z 05008KT 9999 -SHRA BKN018 BKN035 06/05 Q1019 RMK WHT
11:50
M
6 °C 10 km+ 2.400 ft 050° 050° 9 kt METAR EGXW 041150Z AUTO 05009KT 9999 BKN024/// BKN036/// 06/04 Q1019
10:50
V
6 °C 10 km+ 4.800 ft 060° 060° 8 kt METAR EGXW 041050Z AUTO 06008KT 9999 SCT035/// BKN048/// 06/04 Q1019
09:50
V
5 °C 10 km+ 4.600 ft 100° 100° 7 kt METAR EGXW 040950Z AUTO 10007KT 9999 FEW024/// SCT033/// BKN046/// 05/03 Q1019 RERA

Noi e le terze parti seguiamo il tuo comportamento su internet con i cookie. Se continui, riteniamo che tu sia d'accordo con la nostra Politica sui cookie.